sensor_id;sensor_type;location;lat;lon;timestamp;temperature;humidity
15111;DHT22;7656;51.954;7.998;2024-01-30T00:03:00;4.80;99.90
15111;DHT22;7656;51.954;7.998;2024-01-30T00:07:21;4.60;99.90
15111;DHT22;7656;51.954;7.998;2024-01-30T00:11:42;4.70;99.90
15111;DHT22;7656;51.954;7.998;2024-01-30T00:16:04;4.80;99.90
15111;DHT22;7656;51.954;7.998;2024-01-30T00:20:25;4.80;99.90
15111;DHT22;7656;51.954;7.998;2024-01-30T00:24:47;4.90;99.90
15111;DHT22;7656;51.954;7.998;2024-01-30T00:29:08;4.70;99.90
15111;DHT22;7656;51.954;7.998;2024-01-30T00:33:29;4.80;99.90
15111;DHT22;7656;51.954;7.998;2024-01-30T00:37:50;4.80;99.90
15111;DHT22;7656;51.954;7.998;2024-01-30T00:42:11;4.70;99.90
15111;DHT22;7656;51.954;7.998;2024-01-30T00:46:33;4.70;99.90
15111;DHT22;7656;51.954;7.998;2024-01-30T00:50:54;4.80;99.90
15111;DHT22;7656;51.954;7.998;2024-01-30T00:55:15;4.80;99.90
15111;DHT22;7656;51.954;7.998;2024-01-30T00:59:36;4.80;99.90
15111;DHT22;7656;51.954;7.998;2024-01-30T01:03:57;4.80;99.90
15111;DHT22;7656;51.954;7.998;2024-01-30T01:08:19;4.60;99.90
15111;DHT22;7656;51.954;7.998;2024-01-30T01:12:41;4.60;99.90
15111;DHT22;7656;51.954;7.998;2024-01-30T01:17:02;4.40;99.90
15111;DHT22;7656;51.954;7.998;2024-01-30T01:21:23;4.50;99.90
15111;DHT22;7656;51.954;7.998;2024-01-30T01:25:45;4.30;99.90
15111;DHT22;7656;51.954;7.998;2024-01-30T01:30:10;4.10;99.90
15111;DHT22;7656;51.954;7.998;2024-01-30T01:34:32;4.00;99.90
15111;DHT22;7656;51.954;7.998;2024-01-30T01:38:53;4.10;99.90
15111;DHT22;7656;51.954;7.998;2024-01-30T01:43:14;4.20;99.90
15111;DHT22;7656;51.954;7.998;2024-01-30T01:47:36;4.00;99.90
15111;DHT22;7656;51.954;7.998;2024-01-30T01:51:58;4.00;99.90
15111;DHT22;7656;51.954;7.998;2024-01-30T01:56:20;4.00;99.90
15111;DHT22;7656;51.954;7.998;2024-01-30T02:00:41;4.00;99.90
15111;DHT22;7656;51.954;7.998;2024-01-30T02:05:03;4.10;99.90
15111;DHT22;7656;51.954;7.998;2024-01-30T02:09:24;4.20;99.90
15111;DHT22;7656;51.954;7.998;2024-01-30T02:13:46;4.30;99.90
15111;DHT22;7656;51.954;7.998;2024-01-30T02:18:07;4.30;99.90
15111;DHT22;7656;51.954;7.998;2024-01-30T02:22:28;4.40;99.90
15111;DHT22;7656;51.954;7.998;2024-01-30T02:26:49;4.30;99.90
15111;DHT22;7656;51.954;7.998;2024-01-30T02:31:10;4.00;99.90
15111;DHT22;7656;51.954;7.998;2024-01-30T02:35:32;4.00;99.90
15111;DHT22;7656;51.954;7.998;2024-01-30T02:39:54;3.90;99.90
15111;DHT22;7656;51.954;7.998;2024-01-30T02:44:15;3.70;99.90
15111;DHT22;7656;51.954;7.998;2024-01-30T02:48:36;3.50;99.90
15111;DHT22;7656;51.954;7.998;2024-01-30T02:52:59;3.80;99.90
15111;DHT22;7656;51.954;7.998;2024-01-30T02:57:20;3.80;99.90
15111;DHT22;7656;51.954;7.998;2024-01-30T03:01:44;3.90;99.90
15111;DHT22;7656;51.954;7.998;2024-01-30T03:06:06;3.90;99.90
15111;DHT22;7656;51.954;7.998;2024-01-30T03:10:28;4.00;99.90
15111;DHT22;7656;51.954;7.998;2024-01-30T03:14:49;4.10;99.90
15111;DHT22;7656;51.954;7.998;2024-01-30T03:19:13;4.00;99.90
15111;DHT22;7656;51.954;7.998;2024-01-30T03:23:34;3.90;99.90
15111;DHT22;7656;51.954;7.998;2024-01-30T03:27:55;3.90;99.90
15111;DHT22;7656;51.954;7.998;2024-01-30T03:32:16;4.10;99.90
15111;DHT22;7656;51.954;7.998;2024-01-30T03:36:37;4.30;99.90
15111;DHT22;7656;51.954;7.998;2024-01-30T03:40:59;4.10;99.90
15111;DHT22;7656;51.954;7.998;2024-01-30T03:45:20;4.10;99.90
15111;DHT22;7656;51.954;7.998;2024-01-30T03:49:41;4.00;99.90
15111;DHT22;7656;51.954;7.998;2024-01-30T03:54:02;4.10;99.90
15111;DHT22;7656;51.954;7.998;2024-01-30T03:58:23;4.20;99.90
15111;DHT22;7656;51.954;7.998;2024-01-30T04:02:45;4.30;99.90
15111;DHT22;7656;51.954;7.998;2024-01-30T04:07:06;4.40;99.90
15111;DHT22;7656;51.954;7.998;2024-01-30T04:11:27;4.20;99.90
15111;DHT22;7656;51.954;7.998;2024-01-30T04:15:48;4.20;99.90
15111;DHT22;7656;51.954;7.998;2024-01-30T04:20:14;4.20;99.90
15111;DHT22;7656;51.954;7.998;2024-01-30T04:24:36;4.40;99.90
15111;DHT22;7656;51.954;7.998;2024-01-30T04:28:57;4.50;99.90
15111;DHT22;7656;51.954;7.998;2024-01-30T04:33:18;4.60;99.90
15111;DHT22;7656;51.954;7.998;2024-01-30T04:37:39;4.60;99.90
15111;DHT22;7656;51.954;7.998;2024-01-30T04:42:00;4.50;99.90
15111;DHT22;7656;51.954;7.998;2024-01-30T04:46:21;4.50;99.90
15111;DHT22;7656;51.954;7.998;2024-01-30T04:50:42;4.60;99.90
15111;DHT22;7656;51.954;7.998;2024-01-30T04:55:04;4.60;99.90
15111;DHT22;7656;51.954;7.998;2024-01-30T04:59:25;4.30;99.90
15111;DHT22;7656;51.954;7.998;2024-01-30T05:03:46;4.50;99.90
15111;DHT22;7656;51.954;7.998;2024-01-30T05:08:07;4.50;99.90
15111;DHT22;7656;51.954;7.998;2024-01-30T05:12:29;4.20;99.90
15111;DHT22;7656;51.954;7.998;2024-01-30T05:16:50;4.10;99.90
15111;DHT22;7656;51.954;7.998;2024-01-30T05:21:11;3.90;99.90
15111;DHT22;7656;51.954;7.998;2024-01-30T05:25:32;4.10;99.90
15111;DHT22;7656;51.954;7.998;2024-01-30T05:29:54;4.10;99.90
15111;DHT22;7656;51.954;7.998;2024-01-30T05:34:15;4.20;99.90
15111;DHT22;7656;51.954;7.998;2024-01-30T05:38:36;4.40;99.90
15111;DHT22;7656;51.954;7.998;2024-01-30T05:42:57;4.30;99.90
15111;DHT22;7656;51.954;7.998;2024-01-30T05:47:21;4.30;99.90
15111;DHT22;7656;51.954;7.998;2024-01-30T05:51:43;4.40;99.90
15111;DHT22;7656;51.954;7.998;2024-01-30T05:56:04;4.50;99.90
15111;DHT22;7656;51.954;7.998;2024-01-30T06:00:28;4.60;99.90
15111;DHT22;7656;51.954;7.998;2024-01-30T06:04:50;4.60;99.90
15111;DHT22;7656;51.954;7.998;2024-01-30T06:09:11;4.60;99.90
15111;DHT22;7656;51.954;7.998;2024-01-30T06:13:33;4.50;99.90
15111;DHT22;7656;51.954;7.998;2024-01-30T06:17:54;4.40;99.90
15111;DHT22;7656;51.954;7.998;2024-01-30T06:22:16;4.60;99.90
15111;DHT22;7656;51.954;7.998;2024-01-30T06:26:37;4.60;99.90
15111;DHT22;7656;51.954;7.998;2024-01-30T06:31:01;4.50;99.90
15111;DHT22;7656;51.954;7.998;2024-01-30T06:35:22;4.70;99.90
15111;DHT22;7656;51.954;7.998;2024-01-30T06:39:43;4.70;99.90
15111;DHT22;7656;51.954;7.998;2024-01-30T06:44:04;4.70;99.90
15111;DHT22;7656;51.954;7.998;2024-01-30T06:48:27;4.90;99.90
15111;DHT22;7656;51.954;7.998;2024-01-30T06:52:48;5.00;99.90
15111;DHT22;7656;51.954;7.998;2024-01-30T06:57:09;5.10;99.90
15111;DHT22;7656;51.954;7.998;2024-01-30T07:01:32;5.20;99.90
15111;DHT22;7656;51.954;7.998;2024-01-30T07:05:53;5.30;99.90
15111;DHT22;7656;51.954;7.998;2024-01-30T07:10:15;5.40;99.90
15111;DHT22;7656;51.954;7.998;2024-01-30T07:14:36;5.50;99.90
15111;DHT22;7656;51.954;7.998;2024-01-30T07:18:57;5.40;99.90
15111;DHT22;7656;51.954;7.998;2024-01-30T07:23:18;5.30;99.90
15111;DHT22;7656;51.954;7.998;2024-01-30T07:27:39;5.30;99.90
15111;DHT22;7656;51.954;7.998;2024-01-30T07:32:01;5.40;99.90
15111;DHT22;7656;51.954;7.998;2024-01-30T07:36:22;5.60;99.90
15111;DHT22;7656;51.954;7.998;2024-01-30T07:40:43;5.50;99.90
15111;DHT22;7656;51.954;7.998;2024-01-30T07:45:04;5.40;99.90
15111;DHT22;7656;51.954;7.998;2024-01-30T07:49:25;5.70;99.90
15111;DHT22;7656;51.954;7.998;2024-01-30T07:53:46;6.00;99.90
15111;DHT22;7656;51.954;7.998;2024-01-30T07:58:07;6.10;99.90
15111;DHT22;7656;51.954;7.998;2024-01-30T08:02:28;6.20;99.90
15111;DHT22;7656;51.954;7.998;2024-01-30T08:06:50;6.20;99.90
15111;DHT22;7656;51.954;7.998;2024-01-30T08:11:11;6.30;99.90
15111;DHT22;7656;51.954;7.998;2024-01-30T08:15:32;6.60;99.90
15111;DHT22;7656;51.954;7.998;2024-01-30T08:19:54;6.90;99.90
15111;DHT22;7656;51.954;7.998;2024-01-30T08:24:15;6.90;99.90
15111;DHT22;7656;51.954;7.998;2024-01-30T08:28:36;7.10;99.90
15111;DHT22;7656;51.954;7.998;2024-01-30T08:32:57;7.30;99.90
15111;DHT22;7656;51.954;7.998;2024-01-30T08:37:18;7.40;99.90
15111;DHT22;7656;51.954;7.998;2024-01-30T08:41:39;7.90;99.90
15111;DHT22;7656;51.954;7.998;2024-01-30T08:46:00;8.50;99.90
15111;DHT22;7656;51.954;7.998;2024-01-30T08:50:21;8.70;99.90
15111;DHT22;7656;51.954;7.998;2024-01-30T08:54:43;8.90;99.90
15111;DHT22;7656;51.954;7.998;2024-01-30T08:59:04;8.90;99.90
15111;DHT22;7656;51.954;7.998;2024-01-30T09:03:25;9.30;99.90
15111;DHT22;7656;51.954;7.998;2024-01-30T09:07:46;9.60;99.90
15111;DHT22;7656;51.954;7.998;2024-01-30T09:12:07;10.00;99.90
15111;DHT22;7656;51.954;7.998;2024-01-30T09:16:30;10.30;99.90
15111;DHT22;7656;51.954;7.998;2024-01-30T09:20:51;10.50;99.90
15111;DHT22;7656;51.954;7.998;2024-01-30T09:25:12;10.50;99.90
15111;DHT22;7656;51.954;7.998;2024-01-30T09:29:33;10.20;99.90
15111;DHT22;7656;51.954;7.998;2024-01-30T09:33:57;10.40;99.90
15111;DHT22;7656;51.954;7.998;2024-01-30T09:38:18;10.30;99.90
15111;DHT22;7656;51.954;7.998;2024-01-30T09:42:40;10.40;99.90
15111;DHT22;7656;51.954;7.998;2024-01-30T09:47:04;10.10;99.90
15111;DHT22;7656;51.954;7.998;2024-01-30T09:51:26;10.40;99.90
15111;DHT22;7656;51.954;7.998;2024-01-30T09:55:50;10.50;99.90
15111;DHT22;7656;51.954;7.998;2024-01-30T10:00:12;10.50;99.90
15111;DHT22;7656;51.954;7.998;2024-01-30T10:04:34;10.50;99.90
15111;DHT22;7656;51.954;7.998;2024-01-30T10:08:55;10.80;99.90
15111;DHT22;7656;51.954;7.998;2024-01-30T10:13:16;11.20;99.90
15111;DHT22;7656;51.954;7.998;2024-01-30T10:17:37;11.50;99.90
15111;DHT22;7656;51.954;7.998;2024-01-30T10:22:00;11.60;99.90
15111;DHT22;7656;51.954;7.998;2024-01-30T10:26:21;11.50;99.90
15111;DHT22;7656;51.954;7.998;2024-01-30T10:30:42;11.40;99.90
15111;DHT22;7656;51.954;7.998;2024-01-30T10:35:04;11.30;99.90
15111;DHT22;7656;51.954;7.998;2024-01-30T10:39:28;11.20;99.90
15111;DHT22;7656;51.954;7.998;2024-01-30T10:44:01;11.40;99.90
15111;DHT22;7656;51.954;7.998;2024-01-30T10:48:27;11.40;99.90
15111;DHT22;7656;51.954;7.998;2024-01-30T10:52:51;11.10;99.90
15111;DHT22;7656;51.954;7.998;2024-01-30T10:57:13;11.20;99.90
15111;DHT22;7656;51.954;7.998;2024-01-30T11:01:36;11.40;99.90
15111;DHT22;7656;51.954;7.998;2024-01-30T11:06:01;11.80;99.90
15111;DHT22;7656;51.954;7.998;2024-01-30T11:10:25;11.90;99.90
15111;DHT22;7656;51.954;7.998;2024-01-30T11:14:46;12.10;99.90
15111;DHT22;7656;51.954;7.998;2024-01-30T11:19:11;12.30;99.90
15111;DHT22;7656;51.954;7.998;2024-01-30T11:23:33;12.10;99.90
15111;DHT22;7656;51.954;7.998;2024-01-30T11:27:56;12.20;99.90
15111;DHT22;7656;51.954;7.998;2024-01-30T11:32:22;12.50;99.90
15111;DHT22;7656;51.954;7.998;2024-01-30T11:36:51;12.70;99.90
15111;DHT22;7656;51.954;7.998;2024-01-30T11:41:19;13.00;99.90
15111;DHT22;7656;51.954;7.998;2024-01-30T11:45:40;13.60;99.90
15111;DHT22;7656;51.954;7.998;2024-01-30T11:50:02;14.20;99.90
15111;DHT22;7656;51.954;7.998;2024-01-30T11:54:24;14.90;99.90
15111;DHT22;7656;51.954;7.998;2024-01-30T11:58:45;15.00;99.90
15111;DHT22;7656;51.954;7.998;2024-01-30T12:03:06;14.70;99.90
15111;DHT22;7656;51.954;7.998;2024-01-30T12:07:27;14.90;99.90
15111;DHT22;7656;51.954;7.998;2024-01-30T12:11:49;15.00;99.90
15111;DHT22;7656;51.954;7.998;2024-01-30T12:16:13;15.10;99.90
15111;DHT22;7656;51.954;7.998;2024-01-30T12:20:34;15.10;99.90
15111;DHT22;7656;51.954;7.998;2024-01-30T12:24:55;15.10;99.90
15111;DHT22;7656;51.954;7.998;2024-01-30T12:29:17;15.00;99.90
15111;DHT22;7656;51.954;7.998;2024-01-30T12:33:38;14.90;99.90
15111;DHT22;7656;51.954;7.998;2024-01-30T12:37:59;14.60;99.90
15111;DHT22;7656;51.954;7.998;2024-01-30T12:42:20;14.60;99.90
15111;DHT22;7656;51.954;7.998;2024-01-30T12:46:42;14.60;99.90
15111;DHT22;7656;51.954;7.998;2024-01-30T12:51:04;14.30;99.90
15111;DHT22;7656;51.954;7.998;2024-01-30T12:55:25;14.20;99.90
15111;DHT22;7656;51.954;7.998;2024-01-30T12:59:49;14.10;99.90
15111;DHT22;7656;51.954;7.998;2024-01-30T13:04:11;13.80;99.90
15111;DHT22;7656;51.954;7.998;2024-01-30T13:08:32;13.90;99.90
15111;DHT22;7656;51.954;7.998;2024-01-30T13:12:53;14.00;99.90
15111;DHT22;7656;51.954;7.998;2024-01-30T13:17:14;14.00;99.90
15111;DHT22;7656;51.954;7.998;2024-01-30T13:21:35;14.00;99.90
15111;DHT22;7656;51.954;7.998;2024-01-30T13:25:56;13.90;99.90
15111;DHT22;7656;51.954;7.998;2024-01-30T13:30:19;14.00;99.90
15111;DHT22;7656;51.954;7.998;2024-01-30T13:34:40;13.90;99.90
15111;DHT22;7656;51.954;7.998;2024-01-30T13:39:01;13.90;99.90
15111;DHT22;7656;51.954;7.998;2024-01-30T13:43:23;13.90;99.90
15111;DHT22;7656;51.954;7.998;2024-01-30T13:47:44;13.80;99.90
15111;DHT22;7656;51.954;7.998;2024-01-30T13:52:05;13.90;99.90
15111;DHT22;7656;51.954;7.998;2024-01-30T13:56:27;13.70;99.90
15111;DHT22;7656;51.954;7.998;2024-01-30T14:00:48;13.60;99.90
15111;DHT22;7656;51.954;7.998;2024-01-30T14:05:10;13.60;99.90
15111;DHT22;7656;51.954;7.998;2024-01-30T14:09:31;13.50;99.90
15111;DHT22;7656;51.954;7.998;2024-01-30T14:13:53;13.40;99.90
15111;DHT22;7656;51.954;7.998;2024-01-30T14:18:14;13.30;99.90
15111;DHT22;7656;51.954;7.998;2024-01-30T14:22:35;13.30;99.90
15111;DHT22;7656;51.954;7.998;2024-01-30T14:26:56;13.30;99.90
15111;DHT22;7656;51.954;7.998;2024-01-30T14:31:17;13.20;99.90
15111;DHT22;7656;51.954;7.998;2024-01-30T14:35:39;13.40;99.90
15111;DHT22;7656;51.954;7.998;2024-01-30T14:40:00;13.20;99.90
15111;DHT22;7656;51.954;7.998;2024-01-30T14:44:21;13.40;99.90
15111;DHT22;7656;51.954;7.998;2024-01-30T14:48:43;13.30;99.90
15111;DHT22;7656;51.954;7.998;2024-01-30T14:53:04;12.90;99.90
15111;DHT22;7656;51.954;7.998;2024-01-30T14:57:27;12.80;99.90
15111;DHT22;7656;51.954;7.998;2024-01-30T15:01:48;12.90;99.90
15111;DHT22;7656;51.954;7.998;2024-01-30T15:06:12;13.10;99.90
15111;DHT22;7656;51.954;7.998;2024-01-30T15:10:33;13.20;99.90
15111;DHT22;7656;51.954;7.998;2024-01-30T15:14:54;12.90;99.90
15111;DHT22;7656;51.954;7.998;2024-01-30T15:19:16;12.90;99.90
15111;DHT22;7656;51.954;7.998;2024-01-30T15:23:37;12.90;99.90
15111;DHT22;7656;51.954;7.998;2024-01-30T15:27:58;12.90;99.90
15111;DHT22;7656;51.954;7.998;2024-01-30T15:32:19;12.90;99.90
15111;DHT22;7656;51.954;7.998;2024-01-30T15:36:40;12.90;99.90
15111;DHT22;7656;51.954;7.998;2024-01-30T15:41:01;13.00;99.90
15111;DHT22;7656;51.954;7.998;2024-01-30T15:45:22;13.10;99.90
15111;DHT22;7656;51.954;7.998;2024-01-30T15:49:43;13.20;99.90
15111;DHT22;7656;51.954;7.998;2024-01-30T15:54:04;13.00;99.90
15111;DHT22;7656;51.954;7.998;2024-01-30T15:58:25;12.90;99.90
15111;DHT22;7656;51.954;7.998;2024-01-30T16:02:46;12.80;99.90
15111;DHT22;7656;51.954;7.998;2024-01-30T16:07:08;13.00;99.90
15111;DHT22;7656;51.954;7.998;2024-01-30T16:11:29;12.70;99.90
15111;DHT22;7656;51.954;7.998;2024-01-30T16:15:52;12.40;99.90
15111;DHT22;7656;51.954;7.998;2024-01-30T16:20:13;12.20;99.90
15111;DHT22;7656;51.954;7.998;2024-01-30T16:24:35;12.10;99.90
15111;DHT22;7656;51.954;7.998;2024-01-30T16:28:56;11.90;99.90
15111;DHT22;7656;51.954;7.998;2024-01-30T16:33:17;11.80;99.90
15111;DHT22;7656;51.954;7.998;2024-01-30T16:37:39;11.60;99.90
15111;DHT22;7656;51.954;7.998;2024-01-30T16:42:00;11.50;99.90
15111;DHT22;7656;51.954;7.998;2024-01-30T16:46:21;11.50;99.90
15111;DHT22;7656;51.954;7.998;2024-01-30T16:50:42;11.50;99.90
15111;DHT22;7656;51.954;7.998;2024-01-30T16:55:03;11.50;99.90
15111;DHT22;7656;51.954;7.998;2024-01-30T16:59:25;11.50;99.90
15111;DHT22;7656;51.954;7.998;2024-01-30T17:03:46;11.00;99.90
15111;DHT22;7656;51.954;7.998;2024-01-30T17:08:07;10.80;99.90
15111;DHT22;7656;51.954;7.998;2024-01-30T17:12:29;10.70;99.90
15111;DHT22;7656;51.954;7.998;2024-01-30T17:16:51;10.70;99.90
15111;DHT22;7656;51.954;7.998;2024-01-30T17:21:22;10.70;99.90
15111;DHT22;7656;51.954;7.998;2024-01-30T17:25:43;10.60;99.90
15111;DHT22;7656;51.954;7.998;2024-01-30T17:30:05;10.50;99.90
15111;DHT22;7656;51.954;7.998;2024-01-30T17:34:26;10.50;99.90
15111;DHT22;7656;51.954;7.998;2024-01-30T17:38:48;10.40;99.90
15111;DHT22;7656;51.954;7.998;2024-01-30T17:43:09;10.40;99.90
15111;DHT22;7656;51.954;7.998;2024-01-30T17:47:30;10.50;99.90
15111;DHT22;7656;51.954;7.998;2024-01-30T17:51:51;10.50;99.90
15111;DHT22;7656;51.954;7.998;2024-01-30T17:56:12;10.70;99.90
15111;DHT22;7656;51.954;7.998;2024-01-30T18:00:33;10.90;99.90
15111;DHT22;7656;51.954;7.998;2024-01-30T18:04:55;10.80;99.90
15111;DHT22;7656;51.954;7.998;2024-01-30T18:09:16;10.80;99.90
15111;DHT22;7656;51.954;7.998;2024-01-30T18:13:37;10.80;99.90
15111;DHT22;7656;51.954;7.998;2024-01-30T18:17:59;10.60;99.90
15111;DHT22;7656;51.954;7.998;2024-01-30T18:22:20;10.60;99.90
15111;DHT22;7656;51.954;7.998;2024-01-30T18:26:41;10.40;99.90
15111;DHT22;7656;51.954;7.998;2024-01-30T18:31:02;10.30;99.90
15111;DHT22;7656;51.954;7.998;2024-01-30T18:35:23;10.30;99.90
15111;DHT22;7656;51.954;7.998;2024-01-30T18:39:44;10.20;99.90
15111;DHT22;7656;51.954;7.998;2024-01-30T18:44:06;10.30;99.90
15111;DHT22;7656;51.954;7.998;2024-01-30T18:48:27;10.10;99.90
15111;DHT22;7656;51.954;7.998;2024-01-30T18:52:51;9.90;99.90
15111;DHT22;7656;51.954;7.998;2024-01-30T18:57:13;9.70;99.90
15111;DHT22;7656;51.954;7.998;2024-01-30T19:01:35;9.60;99.90
15111;DHT22;7656;51.954;7.998;2024-01-30T19:05:56;9.60;99.90
15111;DHT22;7656;51.954;7.998;2024-01-30T19:10:17;9.60;99.90
15111;DHT22;7656;51.954;7.998;2024-01-30T19:14:38;9.50;99.90
15111;DHT22;7656;51.954;7.998;2024-01-30T19:18:59;9.40;99.90
15111;DHT22;7656;51.954;7.998;2024-01-30T19:23:21;9.40;99.90
15111;DHT22;7656;51.954;7.998;2024-01-30T19:27:42;9.30;99.90
15111;DHT22;7656;51.954;7.998;2024-01-30T19:32:04;9.50;99.90
15111;DHT22;7656;51.954;7.998;2024-01-30T19:36:26;9.50;99.90
15111;DHT22;7656;51.954;7.998;2024-01-30T19:40:47;9.40;99.90
15111;DHT22;7656;51.954;7.998;2024-01-30T19:45:09;9.30;99.90
15111;DHT22;7656;51.954;7.998;2024-01-30T19:49:32;9.20;99.90
15111;DHT22;7656;51.954;7.998;2024-01-30T19:53:53;9.30;99.90
15111;DHT22;7656;51.954;7.998;2024-01-30T19:58:15;9.40;99.90
15111;DHT22;7656;51.954;7.998;2024-01-30T20:02:36;9.20;99.90
15111;DHT22;7656;51.954;7.998;2024-01-30T20:06:58;9.10;99.90
15111;DHT22;7656;51.954;7.998;2024-01-30T20:11:19;9.20;99.90
15111;DHT22;7656;51.954;7.998;2024-01-30T20:15:40;9.30;99.90
15111;DHT22;7656;51.954;7.998;2024-01-30T20:20:01;9.10;99.90
15111;DHT22;7656;51.954;7.998;2024-01-30T20:24:23;9.20;99.90
15111;DHT22;7656;51.954;7.998;2024-01-30T20:28:44;9.30;99.90
15111;DHT22;7656;51.954;7.998;2024-01-30T20:33:05;9.30;99.90
15111;DHT22;7656;51.954;7.998;2024-01-30T20:37:26;9.40;99.90
15111;DHT22;7656;51.954;7.998;2024-01-30T20:41:48;9.50;99.90
15111;DHT22;7656;51.954;7.998;2024-01-30T20:46:10;9.40;99.90
15111;DHT22;7656;51.954;7.998;2024-01-30T20:50:34;9.30;99.90
15111;DHT22;7656;51.954;7.998;2024-01-30T20:54:55;9.50;99.90
15111;DHT22;7656;51.954;7.998;2024-01-30T20:59:16;9.40;99.90
15111;DHT22;7656;51.954;7.998;2024-01-30T21:03:37;9.40;99.90
15111;DHT22;7656;51.954;7.998;2024-01-30T21:08:00;9.50;99.90
15111;DHT22;7656;51.954;7.998;2024-01-30T21:12:21;9.60;99.90
15111;DHT22;7656;51.954;7.998;2024-01-30T21:16:42;9.60;99.90
15111;DHT22;7656;51.954;7.998;2024-01-30T21:21:04;9.60;99.90
15111;DHT22;7656;51.954;7.998;2024-01-30T21:25:25;9.50;99.90
15111;DHT22;7656;51.954;7.998;2024-01-30T21:29:46;9.60;99.90
15111;DHT22;7656;51.954;7.998;2024-01-30T21:34:08;9.50;99.90
15111;DHT22;7656;51.954;7.998;2024-01-30T21:38:29;9.40;99.90
15111;DHT22;7656;51.954;7.998;2024-01-30T21:42:50;9.30;99.90
15111;DHT22;7656;51.954;7.998;2024-01-30T21:47:12;9.30;99.90
15111;DHT22;7656;51.954;7.998;2024-01-30T21:51:33;9.00;99.90
15111;DHT22;7656;51.954;7.998;2024-01-30T21:55:54;9.00;99.90
15111;DHT22;7656;51.954;7.998;2024-01-30T22:00:15;9.00;99.90
15111;DHT22;7656;51.954;7.998;2024-01-30T22:04:37;8.90;99.90
15111;DHT22;7656;51.954;7.998;2024-01-30T22:08:58;8.90;99.90
15111;DHT22;7656;51.954;7.998;2024-01-30T22:13:19;8.50;99.90
15111;DHT22;7656;51.954;7.998;2024-01-30T22:17:42;8.40;99.90
15111;DHT22;7656;51.954;7.998;2024-01-30T22:22:03;8.40;99.90
15111;DHT22;7656;51.954;7.998;2024-01-30T22:26:25;8.40;99.90
15111;DHT22;7656;51.954;7.998;2024-01-30T22:30:46;8.50;99.90
15111;DHT22;7656;51.954;7.998;2024-01-30T22:35:07;8.50;99.90
15111;DHT22;7656;51.954;7.998;2024-01-30T22:39:30;8.50;99.90
15111;DHT22;7656;51.954;7.998;2024-01-30T22:43:51;8.50;99.90
15111;DHT22;7656;51.954;7.998;2024-01-30T22:48:13;8.60;99.90
15111;DHT22;7656;51.954;7.998;2024-01-30T22:52:34;8.60;99.90
15111;DHT22;7656;51.954;7.998;2024-01-30T22:56:55;8.60;99.90
15111;DHT22;7656;51.954;7.998;2024-01-30T23:01:16;8.60;99.90
15111;DHT22;7656;51.954;7.998;2024-01-30T23:05:37;8.70;99.90
15111;DHT22;7656;51.954;7.998;2024-01-30T23:09:58;8.80;99.90
15111;DHT22;7656;51.954;7.998;2024-01-30T23:14:19;8.70;99.90
15111;DHT22;7656;51.954;7.998;2024-01-30T23:18:40;8.70;99.90
15111;DHT22;7656;51.954;7.998;2024-01-30T23:23:02;8.50;99.90
15111;DHT22;7656;51.954;7.998;2024-01-30T23:27:23;8.60;99.90
15111;DHT22;7656;51.954;7.998;2024-01-30T23:31:44;8.60;99.90
15111;DHT22;7656;51.954;7.998;2024-01-30T23:36:05;8.60;99.90
15111;DHT22;7656;51.954;7.998;2024-01-30T23:40:26;8.60;99.90
15111;DHT22;7656;51.954;7.998;2024-01-30T23:44:48;8.70;99.90
15111;DHT22;7656;51.954;7.998;2024-01-30T23:49:09;8.60;99.90
15111;DHT22;7656;51.954;7.998;2024-01-30T23:53:31;8.50;99.90
15111;DHT22;7656;51.954;7.998;2024-01-30T23:57:55;8.60;99.90
